sensor_id;sensor_type;location;lat;lon;timestamp;P1;durP1;ratioP1;P2;durP2;ratioP2
78901;SDS011;70441;44.758;37.686;2023-06-10T00:00:18;11.18;;;3.55;;
78901;SDS011;70441;44.758;37.686;2023-06-10T00:01:19;12.30;;;3.80;;
78901;SDS011;70441;44.758;37.686;2023-06-10T00:02:20;12.50;;;3.47;;
78901;SDS011;70441;44.758;37.686;2023-06-10T00:03:22;12.18;;;3.72;;
78901;SDS011;70441;44.758;37.686;2023-06-10T00:04:24;14.50;;;3.85;;
78901;SDS011;70441;44.758;37.686;2023-06-10T00:05:27;9.13;;;3.50;;
78901;SDS011;70441;44.758;37.686;2023-06-10T00:06:30;11.27;;;3.95;;
78901;SDS011;70441;44.758;37.686;2023-06-10T00:07:36;17.55;;;4.10;;
78901;SDS011;70441;44.758;37.686;2023-06-10T00:08:38;12.05;;;3.88;;
78901;SDS011;70441;44.758;37.686;2023-06-10T00:09:42;12.25;;;3.78;;
78901;SDS011;70441;44.758;37.686;2023-06-10T00:10:43;12.18;;;3.78;;
78901;SDS011;70441;44.758;37.686;2023-06-10T00:11:44;10.60;;;3.40;;
78901;SDS011;70441;44.758;37.686;2023-06-10T00:12:45;13.13;;;3.65;;
78901;SDS011;70441;44.758;37.686;2023-06-10T00:13:47;12.73;;;3.78;;
78901;SDS011;70441;44.758;37.686;2023-06-10T00:14:48;9.35;;;3.80;;
78901;SDS011;70441;44.758;37.686;2023-06-10T00:15:52;11.10;;;3.75;;
78901;SDS011;70441;44.758;37.686;2023-06-10T00:16:53;12.77;;;3.88;;
78901;SDS011;70441;44.758;37.686;2023-06-10T00:17:56;14.23;;;3.63;;
78901;SDS011;70441;44.758;37.686;2023-06-10T00:18:59;13.13;;;4.03;;
78901;SDS011;70441;44.758;37.686;2023-06-10T00:20:02;12.15;;;4.00;;
78901;SDS011;70441;44.758;37.686;2023-06-10T00:21:09;16.02;;;3.88;;
78901;SDS011;70441;44.758;37.686;2023-06-10T00:22:11;13.65;;;3.95;;
78901;SDS011;70441;44.758;37.686;2023-06-10T00:23:12;17.23;;;3.63;;
78901;SDS011;70441;44.758;37.686;2023-06-10T00:24:14;12.65;;;4.32;;
78901;SDS011;70441;44.758;37.686;2023-06-10T00:25:15;17.42;;;4.13;;
78901;SDS011;70441;44.758;37.686;2023-06-10T00:26:16;10.07;;;4.00;;
78901;SDS011;70441;44.758;37.686;2023-06-10T00:27:19;13.50;;;4.25;;
78901;SDS011;70441;44.758;37.686;2023-06-10T00:28:20;16.45;;;4.28;;
78901;SDS011;70441;44.758;37.686;2023-06-10T00:29:22;12.30;;;3.97;;
78901;SDS011;70441;44.758;37.686;2023-06-10T00:30:23;14.48;;;4.18;;
78901;SDS011;70441;44.758;37.686;2023-06-10T00:31:24;16.10;;;3.75;;
78901;SDS011;70441;44.758;37.686;2023-06-10T00:32:29;15.13;;;3.80;;
78901;SDS011;70441;44.758;37.686;2023-06-10T00:33:31;18.80;;;4.35;;
78901;SDS011;70441;44.758;37.686;2023-06-10T00:34:33;11.55;;;4.43;;
78901;SDS011;70441;44.758;37.686;2023-06-10T00:35:34;11.23;;;4.22;;
78901;SDS011;70441;44.758;37.686;2023-06-10T00:36:36;12.35;;;3.85;;
78901;SDS011;70441;44.758;37.686;2023-06-10T00:37:37;14.07;;;4.22;;
78901;SDS011;70441;44.758;37.686;2023-06-10T00:38:38;18.23;;;3.80;;
78901;SDS011;70441;44.758;37.686;2023-06-10T00:39:43;15.10;;;4.30;;
78901;SDS011;70441;44.758;37.686;2023-06-10T00:40:44;17.30;;;4.30;;
78901;SDS011;70441;44.758;37.686;2023-06-10T00:41:46;13.80;;;3.90;;
78901;SDS011;70441;44.758;37.686;2023-06-10T00:42:47;17.27;;;4.72;;
78901;SDS011;70441;44.758;37.686;2023-06-10T00:43:49;15.15;;;4.10;;
78901;SDS011;70441;44.758;37.686;2023-06-10T00:44:50;15.43;;;4.50;;
78901;SDS011;70441;44.758;37.686;2023-06-10T00:45:51;12.93;;;4.18;;
78901;SDS011;70441;44.758;37.686;2023-06-10T00:46:53;13.85;;;4.80;;
78901;SDS011;70441;44.758;37.686;2023-06-10T00:47:56;13.35;;;5.10;;
78901;SDS011;70441;44.758;37.686;2023-06-10T00:48:58;10.98;;;4.13;;
78901;SDS011;70441;44.758;37.686;2023-06-10T00:50:01;17.45;;;4.95;;
78901;SDS011;70441;44.758;37.686;2023-06-10T00:51:03;15.80;;;4.80;;
78901;SDS011;70441;44.758;37.686;2023-06-10T00:52:06;17.83;;;4.47;;
78901;SDS011;70441;44.758;37.686;2023-06-10T00:53:08;14.00;;;5.75;;
78901;SDS011;70441;44.758;37.686;2023-06-10T00:54:11;17.00;;;5.28;;
78901;SDS011;70441;44.758;37.686;2023-06-10T00:55:18;12.48;;;5.07;;
78901;SDS011;70441;44.758;37.686;2023-06-10T00:56:21;16.25;;;5.20;;
78901;SDS011;70441;44.758;37.686;2023-06-10T00:57:23;15.20;;;4.75;;
78901;SDS011;70441;44.758;37.686;2023-06-10T00:58:24;15.50;;;5.25;;
78901;SDS011;70441;44.758;37.686;2023-06-10T00:59:27;19.45;;;5.30;;
78901;SDS011;70441;44.758;37.686;2023-06-10T01:00:29;14.35;;;5.38;;
78901;SDS011;70441;44.758;37.686;2023-06-10T01:01:31;16.10;;;5.40;;
78901;SDS011;70441;44.758;37.686;2023-06-10T01:02:36;14.27;;;5.45;;
78901;SDS011;70441;44.758;37.686;2023-06-10T01:03:37;14.25;;;5.55;;
78901;SDS011;70441;44.758;37.686;2023-06-10T01:04:40;15.20;;;5.30;;
78901;SDS011;70441;44.758;37.686;2023-06-10T01:05:42;19.45;;;5.68;;
78901;SDS011;70441;44.758;37.686;2023-06-10T01:10:33;12.60;;;4.95;;
78901;SDS011;70441;44.758;37.686;2023-06-10T01:11:36;14.57;;;5.55;;
78901;SDS011;70441;44.758;37.686;2023-06-10T01:12:46;14.43;;;5.28;;
78901;SDS011;70441;44.758;37.686;2023-06-10T01:13:55;14.35;;;5.22;;
78901;SDS011;70441;44.758;37.686;2023-06-10T01:14:59;12.57;;;5.55;;
78901;SDS011;70441;44.758;37.686;2023-06-10T01:16:02;15.43;;;5.28;;
78901;SDS011;70441;44.758;37.686;2023-06-10T01:17:04;16.80;;;5.75;;
78901;SDS011;70441;44.758;37.686;2023-06-10T01:18:10;17.40;;;5.97;;
78901;SDS011;70441;44.758;37.686;2023-06-10T01:19:15;16.33;;;5.53;;
78901;SDS011;70441;44.758;37.686;2023-06-10T01:20:18;20.23;;;5.07;;
78901;SDS011;70441;44.758;37.686;2023-06-10T01:21:20;12.10;;;5.60;;
78901;SDS011;70441;44.758;37.686;2023-06-10T01:22:25;16.95;;;5.60;;
78901;SDS011;70441;44.758;37.686;2023-06-10T01:23:33;17.55;;;5.53;;
78901;SDS011;70441;44.758;37.686;2023-06-10T01:24:34;15.80;;;5.70;;
78901;SDS011;70441;44.758;37.686;2023-06-10T01:25:39;17.80;;;6.00;;
78901;SDS011;70441;44.758;37.686;2023-06-10T01:26:56;16.45;;;5.32;;
78901;SDS011;70441;44.758;37.686;2023-06-10T01:29:46;19.08;;;5.35;;
78901;SDS011;70441;44.758;37.686;2023-06-10T01:32:21;17.60;;;6.32;;
78901;SDS011;70441;44.758;37.686;2023-06-10T01:33:28;21.58;;;6.32;;
78901;SDS011;70441;44.758;37.686;2023-06-10T01:34:32;17.08;;;6.15;;
78901;SDS011;70441;44.758;37.686;2023-06-10T01:35:34;20.45;;;6.30;;
78901;SDS011;70441;44.758;37.686;2023-06-10T01:36:40;17.65;;;7.03;;
78901;SDS011;70441;44.758;37.686;2023-06-10T01:37:46;19.35;;;6.85;;
78901;SDS011;70441;44.758;37.686;2023-06-10T01:38:48;19.75;;;7.22;;
78901;SDS011;70441;44.758;37.686;2023-06-10T01:39:51;20.77;;;7.97;;
78901;SDS011;70441;44.758;37.686;2023-06-10T01:40:55;14.13;;;6.63;;
78901;SDS011;70441;44.758;37.686;2023-06-10T01:41:58;15.82;;;7.13;;
78901;SDS011;70441;44.758;37.686;2023-06-10T01:42:59;18.02;;;6.95;;
78901;SDS011;70441;44.758;37.686;2023-06-10T01:44:01;18.42;;;6.72;;
78901;SDS011;70441;44.758;37.686;2023-06-10T01:45:03;18.15;;;6.57;;
78901;SDS011;70441;44.758;37.686;2023-06-10T01:46:05;14.93;;;6.75;;
78901;SDS011;70441;44.758;37.686;2023-06-10T01:47:08;11.68;;;6.18;;
78901;SDS011;70441;44.758;37.686;2023-06-10T01:48:09;20.88;;;7.15;;
78901;SDS011;70441;44.758;37.686;2023-06-10T01:49:12;16.75;;;6.28;;
78901;SDS011;70441;44.758;37.686;2023-06-10T01:51:17;14.93;;;5.90;;
78901;SDS011;70441;44.758;37.686;2023-06-10T01:52:18;18.15;;;5.53;;
78901;SDS011;70441;44.758;37.686;2023-06-10T01:53:19;15.88;;;5.55;;
78901;SDS011;70441;44.758;37.686;2023-06-10T01:54:21;15.70;;;6.05;;
78901;SDS011;70441;44.758;37.686;2023-06-10T01:55:22;19.63;;;5.32;;
78901;SDS011;70441;44.758;37.686;2023-06-10T01:56:24;18.08;;;5.70;;
78901;SDS011;70441;44.758;37.686;2023-06-10T01:57:25;13.93;;;5.85;;
78901;SDS011;70441;44.758;37.686;2023-06-10T01:59:29;15.70;;;5.47;;
78901;SDS011;70441;44.758;37.686;2023-06-10T02:00:30;13.00;;;5.32;;
78901;SDS011;70441;44.758;37.686;2023-06-10T02:01:32;13.77;;;4.68;;
78901;SDS011;70441;44.758;37.686;2023-06-10T02:02:34;16.15;;;5.40;;
78901;SDS011;70441;44.758;37.686;2023-06-10T02:03:35;15.88;;;5.57;;
78901;SDS011;70441;44.758;37.686;2023-06-10T02:04:37;14.55;;;5.50;;
78901;SDS011;70441;44.758;37.686;2023-06-10T02:05:38;17.15;;;5.18;;
78901;SDS011;70441;44.758;37.686;2023-06-10T02:06:40;18.75;;;5.95;;
78901;SDS011;70441;44.758;37.686;2023-06-10T02:07:42;14.27;;;5.30;;
78901;SDS011;70441;44.758;37.686;2023-06-10T02:08:43;13.45;;;5.10;;
78901;SDS011;70441;44.758;37.686;2023-06-10T02:09:45;13.38;;;5.00;;
78901;SDS011;70441;44.758;37.686;2023-06-10T02:10:46;13.82;;;4.97;;
78901;SDS011;70441;44.758;37.686;2023-06-10T02:11:47;15.68;;;5.35;;
78901;SDS011;70441;44.758;37.686;2023-06-10T02:12:48;13.05;;;5.00;;
78901;SDS011;70441;44.758;37.686;2023-06-10T02:13:50;14.70;;;4.95;;
78901;SDS011;70441;44.758;37.686;2023-06-10T02:14:51;11.27;;;5.28;;
78901;SDS011;70441;44.758;37.686;2023-06-10T02:15:52;11.75;;;4.93;;
78901;SDS011;70441;44.758;37.686;2023-06-10T02:16:54;11.88;;;5.13;;
78901;SDS011;70441;44.758;37.686;2023-06-10T02:17:58;15.45;;;5.65;;
78901;SDS011;70441;44.758;37.686;2023-06-10T02:19:01;16.10;;;5.78;;
78901;SDS011;70441;44.758;37.686;2023-06-10T02:20:04;12.00;;;5.30;;
78901;SDS011;70441;44.758;37.686;2023-06-10T02:21:08;14.75;;;5.97;;
78901;SDS011;70441;44.758;37.686;2023-06-10T02:22:10;14.10;;;5.63;;
78901;SDS011;70441;44.758;37.686;2023-06-10T02:23:11;11.70;;;5.60;;
78901;SDS011;70441;44.758;37.686;2023-06-10T02:24:13;13.80;;;6.03;;
78901;SDS011;70441;44.758;37.686;2023-06-10T02:25:14;14.30;;;5.53;;
78901;SDS011;70441;44.758;37.686;2023-06-10T02:26:15;13.65;;;5.65;;
78901;SDS011;70441;44.758;37.686;2023-06-10T02:27:18;10.90;;;5.43;;
78901;SDS011;70441;44.758;37.686;2023-06-10T02:28:20;16.80;;;6.13;;
78901;SDS011;70441;44.758;37.686;2023-06-10T02:29:21;13.73;;;5.63;;
78901;SDS011;70441;44.758;37.686;2023-06-10T02:30:23;12.60;;;5.82;;
78901;SDS011;70441;44.758;37.686;2023-06-10T02:31:24;17.63;;;6.28;;
78901;SDS011;70441;44.758;37.686;2023-06-10T02:32:26;20.10;;;6.43;;
78901;SDS011;70441;44.758;37.686;2023-06-10T02:33:29;16.42;;;5.68;;
78901;SDS011;70441;44.758;37.686;2023-06-10T02:34:30;12.82;;;6.70;;
78901;SDS011;70441;44.758;37.686;2023-06-10T02:35:33;14.15;;;6.25;;
78901;SDS011;70441;44.758;37.686;2023-06-10T02:36:35;13.80;;;5.78;;
78901;SDS011;70441;44.758;37.686;2023-06-10T02:37:37;13.80;;;5.60;;
78901;SDS011;70441;44.758;37.686;2023-06-10T02:38:41;21.67;;;6.65;;
78901;SDS011;70441;44.758;37.686;2023-06-10T02:39:42;16.98;;;6.18;;
78901;SDS011;70441;44.758;37.686;2023-06-10T02:40:45;24.42;;;6.60;;
78901;SDS011;70441;44.758;37.686;2023-06-10T02:41:47;13.63;;;6.13;;
78901;SDS011;70441;44.758;37.686;2023-06-10T02:42:50;18.05;;;6.05;;
78901;SDS011;70441;44.758;37.686;2023-06-10T02:43:52;17.50;;;6.18;;
78901;SDS011;70441;44.758;37.686;2023-06-10T02:44:53;11.95;;;5.80;;
78901;SDS011;70441;44.758;37.686;2023-06-10T02:46:08;15.02;;;6.70;;
78901;SDS011;70441;44.758;37.686;2023-06-10T02:47:09;14.98;;;6.63;;
78901;SDS011;70441;44.758;37.686;2023-06-10T02:48:12;21.17;;;6.50;;
78901;SDS011;70441;44.758;37.686;2023-06-10T02:49:14;15.13;;;5.93;;
78901;SDS011;70441;44.758;37.686;2023-06-10T02:50:15;17.90;;;6.18;;
78901;SDS011;70441;44.758;37.686;2023-06-10T02:51:34;15.40;;;6.28;;
78901;SDS011;70441;44.758;37.686;2023-06-10T02:52:37;20.88;;;6.20;;
78901;SDS011;70441;44.758;37.686;2023-06-10T02:53:40;13.25;;;5.25;;
78901;SDS011;70441;44.758;37.686;2023-06-10T02:54:44;11.43;;;5.78;;
78901;SDS011;70441;44.758;37.686;2023-06-10T02:55:46;12.05;;;6.03;;
78901;SDS011;70441;44.758;37.686;2023-06-10T02:56:51;15.27;;;5.80;;
78901;SDS011;70441;44.758;37.686;2023-06-10T02:57:56;16.30;;;5.63;;
78901;SDS011;70441;44.758;37.686;2023-06-10T02:58:59;15.18;;;5.72;;
78901;SDS011;70441;44.758;37.686;2023-06-10T03:00:02;16.50;;;5.88;;
78901;SDS011;70441;44.758;37.686;2023-06-10T03:01:10;11.60;;;5.93;;
78901;SDS011;70441;44.758;37.686;2023-06-10T03:02:20;17.65;;;6.13;;
78901;SDS011;70441;44.758;37.686;2023-06-10T03:03:25;18.67;;;5.53;;
78901;SDS011;70441;44.758;37.686;2023-06-10T03:04:35;14.43;;;5.30;;
78901;SDS011;70441;44.758;37.686;2023-06-10T03:05:43;13.23;;;5.63;;
78901;SDS011;70441;44.758;37.686;2023-06-10T03:06:44;17.02;;;5.90;;
78901;SDS011;70441;44.758;37.686;2023-06-10T03:07:55;22.83;;;6.07;;
78901;SDS011;70441;44.758;37.686;2023-06-10T03:08:57;13.40;;;5.63;;
78901;SDS011;70441;44.758;37.686;2023-06-10T03:10:07;12.93;;;5.88;;
78901;SDS011;70441;44.758;37.686;2023-06-10T03:11:11;14.98;;;5.65;;
78901;SDS011;70441;44.758;37.686;2023-06-10T03:13:19;18.48;;;5.32;;
78901;SDS011;70441;44.758;37.686;2023-06-10T03:14:20;15.93;;;5.80;;
78901;SDS011;70441;44.758;37.686;2023-06-10T03:15:22;25.90;;;6.30;;
78901;SDS011;70441;44.758;37.686;2023-06-10T03:16:25;18.88;;;6.03;;
78901;SDS011;70441;44.758;37.686;2023-06-10T03:17:28;21.02;;;6.03;;
78901;SDS011;70441;44.758;37.686;2023-06-10T03:18:29;17.73;;;5.53;;
78901;SDS011;70441;44.758;37.686;2023-06-10T03:19:31;17.40;;;5.82;;
78901;SDS011;70441;44.758;37.686;2023-06-10T03:20:34;11.60;;;5.43;;
78901;SDS011;70441;44.758;37.686;2023-06-10T03:21:43;19.33;;;6.38;;
78901;SDS011;70441;44.758;37.686;2023-06-10T03:22:46;20.02;;;5.50;;
78901;SDS011;70441;44.758;37.686;2023-06-10T03:23:48;18.77;;;5.43;;
78901;SDS011;70441;44.758;37.686;2023-06-10T03:24:49;14.82;;;4.93;;
78901;SDS011;70441;44.758;37.686;2023-06-10T03:25:52;25.80;;;6.38;;
78901;SDS011;70441;44.758;37.686;2023-06-10T03:26:56;17.55;;;5.43;;
78901;SDS011;70441;44.758;37.686;2023-06-10T03:28:00;14.02;;;5.50;;
78901;SDS011;70441;44.758;37.686;2023-06-10T03:29:02;25.63;;;5.90;;
78901;SDS011;70441;44.758;37.686;2023-06-10T03:30:04;14.10;;;5.35;;
78901;SDS011;70441;44.758;37.686;2023-06-10T03:31:06;12.88;;;5.32;;
78901;SDS011;70441;44.758;37.686;2023-06-10T03:32:07;19.65;;;6.63;;
78901;SDS011;70441;44.758;37.686;2023-06-10T03:33:10;15.40;;;6.60;;
78901;SDS011;70441;44.758;37.686;2023-06-10T03:34:13;14.57;;;6.65;;
78901;SDS011;70441;44.758;37.686;2023-06-10T03:35:14;19.63;;;6.80;;
78901;SDS011;70441;44.758;37.686;2023-06-10T03:36:16;16.75;;;6.40;;
78901;SDS011;70441;44.758;37.686;2023-06-10T03:37:17;17.42;;;7.00;;
78901;SDS011;70441;44.758;37.686;2023-06-10T03:38:21;16.63;;;7.13;;
78901;SDS011;70441;44.758;37.686;2023-06-10T03:39:23;18.42;;;6.40;;
78901;SDS011;70441;44.758;37.686;2023-06-10T03:40:25;20.80;;;6.85;;
78901;SDS011;70441;44.758;37.686;2023-06-10T03:41:26;16.75;;;7.05;;
78901;SDS011;70441;44.758;37.686;2023-06-10T03:43:29;14.07;;;5.97;;
78901;SDS011;70441;44.758;37.686;2023-06-10T03:44:32;19.67;;;6.93;;
78901;SDS011;70441;44.758;37.686;2023-06-10T03:46:35;21.67;;;7.47;;
78901;SDS011;70441;44.758;37.686;2023-06-10T03:47:37;16.73;;;5.80;;
78901;SDS011;70441;44.758;37.686;2023-06-10T03:48:44;13.55;;;5.43;;
78901;SDS011;70441;44.758;37.686;2023-06-10T03:49:45;17.77;;;5.65;;
78901;SDS011;70441;44.758;37.686;2023-06-10T03:50:47;19.83;;;5.97;;
78901;SDS011;70441;44.758;37.686;2023-06-10T03:51:51;23.98;;;6.07;;
78901;SDS011;70441;44.758;37.686;2023-06-10T03:52:53;17.55;;;5.25;;
78901;SDS011;70441;44.758;37.686;2023-06-10T03:53:58;21.23;;;7.38;;
78901;SDS011;70441;44.758;37.686;2023-06-10T03:54:59;21.08;;;5.70;;
78901;SDS011;70441;44.758;37.686;2023-06-10T03:56:01;26.92;;;7.28;;
78901;SDS011;70441;44.758;37.686;2023-06-10T03:57:02;22.13;;;6.57;;
78901;SDS011;70441;44.758;37.686;2023-06-10T03:58:05;27.85;;;7.18;;
78901;SDS011;70441;44.758;37.686;2023-06-10T03:59:06;21.35;;;5.65;;
78901;SDS011;70441;44.758;37.686;2023-06-10T04:00:08;22.50;;;6.00;;
78901;SDS011;70441;44.758;37.686;2023-06-10T04:01:16;25.90;;;6.38;;
78901;SDS011;70441;44.758;37.686;2023-06-10T04:02:19;17.02;;;5.90;;
78901;SDS011;70441;44.758;37.686;2023-06-10T04:03:20;17.75;;;5.30;;
78901;SDS011;70441;44.758;37.686;2023-06-10T04:04:25;16.77;;;5.63;;
78901;SDS011;70441;44.758;37.686;2023-06-10T04:05:26;15.88;;;5.70;;
78901;SDS011;70441;44.758;37.686;2023-06-10T04:06:29;23.85;;;6.45;;
78901;SDS011;70441;44.758;37.686;2023-06-10T04:07:31;13.45;;;5.38;;
78901;SDS011;70441;44.758;37.686;2023-06-10T04:09:34;20.92;;;5.57;;
78901;SDS011;70441;44.758;37.686;2023-06-10T04:10:37;15.55;;;5.45;;
78901;SDS011;70441;44.758;37.686;2023-06-10T04:11:38;14.25;;;5.47;;
78901;SDS011;70441;44.758;37.686;2023-06-10T04:12:40;14.23;;;5.28;;
78901;SDS011;70441;44.758;37.686;2023-06-10T04:13:42;14.02;;;5.03;;
78901;SDS011;70441;44.758;37.686;2023-06-10T04:14:43;12.50;;;5.30;;
78901;SDS011;70441;44.758;37.686;2023-06-10T04:15:46;21.55;;;6.43;;
78901;SDS011;70441;44.758;37.686;2023-06-10T04:16:51;18.05;;;5.47;;
78901;SDS011;70441;44.758;37.686;2023-06-10T04:17:52;14.20;;;5.40;;
78901;SDS011;70441;44.758;37.686;2023-06-10T04:18:57;16.65;;;5.85;;
78901;SDS011;70441;44.758;37.686;2023-06-10T04:19:58;14.25;;;5.40;;
78901;SDS011;70441;44.758;37.686;2023-06-10T04:21:02;12.73;;;6.00;;
78901;SDS011;70441;44.758;37.686;2023-06-10T04:22:04;40.72;;;8.90;;
78901;SDS011;70441;44.758;37.686;2023-06-10T04:23:07;30.05;;;6.97;;
78901;SDS011;70441;44.758;37.686;2023-06-10T04:24:08;11.13;;;5.20;;
78901;SDS011;70441;44.758;37.686;2023-06-10T04:25:10;24.95;;;6.13;;
78901;SDS011;70441;44.758;37.686;2023-06-10T04:26:11;26.67;;;7.03;;
78901;SDS011;70441;44.758;37.686;2023-06-10T04:27:13;15.48;;;6.22;;
78901;SDS011;70441;44.758;37.686;2023-06-10T04:28:15;19.80;;;6.15;;
78901;SDS011;70441;44.758;37.686;2023-06-10T04:29:18;25.30;;;6.18;;
78901;SDS011;70441;44.758;37.686;2023-06-10T04:30:19;18.42;;;6.20;;
78901;SDS011;70441;44.758;37.686;2023-06-10T04:31:21;16.60;;;5.22;;
78901;SDS011;70441;44.758;37.686;2023-06-10T04:32:23;19.38;;;5.78;;
78901;SDS011;70441;44.758;37.686;2023-06-10T04:33:24;20.27;;;7.38;;
78901;SDS011;70441;44.758;37.686;2023-06-10T04:34:25;17.30;;;5.85;;
78901;SDS011;70441;44.758;37.686;2023-06-10T04:35:27;13.75;;;5.47;;
78901;SDS011;70441;44.758;37.686;2023-06-10T04:36:31;14.05;;;5.40;;
78901;SDS011;70441;44.758;37.686;2023-06-10T04:37:32;10.93;;;5.50;;
78901;SDS011;70441;44.758;37.686;2023-06-10T04:38:34;16.23;;;5.70;;
78901;SDS011;70441;44.758;37.686;2023-06-10T04:39:35;11.95;;;5.40;;
78901;SDS011;70441;44.758;37.686;2023-06-10T04:41:39;14.65;;;5.95;;
78901;SDS011;70441;44.758;37.686;2023-06-10T04:42:40;13.80;;;6.43;;
78901;SDS011;70441;44.758;37.686;2023-06-10T04:43:42;15.32;;;6.55;;
78901;SDS011;70441;44.758;37.686;2023-06-10T04:44:44;20.80;;;6.68;;
78901;SDS011;70441;44.758;37.686;2023-06-10T04:45:45;17.67;;;6.38;;
78901;SDS011;70441;44.758;37.686;2023-06-10T04:46:47;15.55;;;6.57;;
78901;SDS011;70441;44.758;37.686;2023-06-10T04:47:48;19.13;;;6.28;;
78901;SDS011;70441;44.758;37.686;2023-06-10T04:48:50;15.25;;;5.95;;
78901;SDS011;70441;44.758;37.686;2023-06-10T04:49:51;17.65;;;5.80;;
78901;SDS011;70441;44.758;37.686;2023-06-10T04:50:53;24.23;;;6.57;;
78901;SDS011;70441;44.758;37.686;2023-06-10T04:51:54;39.45;;;10.13;;
78901;SDS011;70441;44.758;37.686;2023-06-10T04:52:56;16.30;;;6.55;;
78901;SDS011;70441;44.758;37.686;2023-06-10T04:53:58;18.27;;;5.82;;
78901;SDS011;70441;44.758;37.686;2023-06-10T04:55:03;20.65;;;7.00;;
78901;SDS011;70441;44.758;37.686;2023-06-10T04:56:05;14.13;;;6.13;;
78901;SDS011;70441;44.758;37.686;2023-06-10T04:57:06;12.52;;;6.10;;
78901;SDS011;70441;44.758;37.686;2023-06-10T04:59:09;11.88;;;6.22;;
78901;SDS011;70441;44.758;37.686;2023-06-10T05:00:11;22.45;;;6.57;;
78901;SDS011;70441;44.758;37.686;2023-06-10T05:01:12;19.25;;;8.80;;
78901;SDS011;70441;44.758;37.686;2023-06-10T05:02:13;25.10;;;11.52;;
78901;SDS011;70441;44.758;37.686;2023-06-10T05:03:15;19.05;;;9.45;;
78901;SDS011;70441;44.758;37.686;2023-06-10T05:04:16;25.80;;;14.30;;
78901;SDS011;70441;44.758;37.686;2023-06-10T05:05:17;55.88;;;28.83;;
78901;SDS011;70441;44.758;37.686;2023-06-10T05:06:19;55.85;;;24.35;;
78901;SDS011;70441;44.758;37.686;2023-06-10T05:07:20;18.98;;;11.05;;
78901;SDS011;70441;44.758;37.686;2023-06-10T05:08:21;25.00;;;9.57;;
78901;SDS011;70441;44.758;37.686;2023-06-10T05:09:23;16.48;;;7.53;;
78901;SDS011;70441;44.758;37.686;2023-06-10T05:10:24;20.35;;;6.97;;
78901;SDS011;70441;44.758;37.686;2023-06-10T05:12:27;19.98;;;8.20;;
78901;SDS011;70441;44.758;37.686;2023-06-10T05:13:29;26.42;;;8.68;;
78901;SDS011;70441;44.758;37.686;2023-06-10T05:14:30;19.95;;;5.68;;
78901;SDS011;70441;44.758;37.686;2023-06-10T05:15:32;12.48;;;5.25;;
78901;SDS011;70441;44.758;37.686;2023-06-10T05:16:33;10.07;;;5.25;;
78901;SDS011;70441;44.758;37.686;2023-06-10T05:17:34;11.80;;;5.47;;
78901;SDS011;70441;44.758;37.686;2023-06-10T05:18:36;19.50;;;6.68;;
78901;SDS011;70441;44.758;37.686;2023-06-10T05:19:37;18.13;;;5.68;;
78901;SDS011;70441;44.758;37.686;2023-06-10T05:20:39;12.52;;;5.72;;
78901;SDS011;70441;44.758;37.686;2023-06-10T05:21:40;11.65;;;5.43;;
78901;SDS011;70441;44.758;37.686;2023-06-10T05:22:41;17.42;;;5.32;;
78901;SDS011;70441;44.758;37.686;2023-06-10T05:23:43;7.65;;;4.15;;
78901;SDS011;70441;44.758;37.686;2023-06-10T05:24:47;13.52;;;4.50;;
78901;SDS011;70441;44.758;37.686;2023-06-10T05:25:48;12.07;;;4.93;;
78901;SDS011;70441;44.758;37.686;2023-06-10T05:26:50;10.57;;;4.70;;
78901;SDS011;70441;44.758;37.686;2023-06-10T05:27:51;21.27;;;4.57;;
78901;SDS011;70441;44.758;37.686;2023-06-10T05:28:52;12.95;;;4.78;;
78901;SDS011;70441;44.758;37.686;2023-06-10T05:29:54;19.08;;;6.13;;
78901;SDS011;70441;44.758;37.686;2023-06-10T05:30:55;13.63;;;5.05;;
78901;SDS011;70441;44.758;37.686;2023-06-10T05:32:03;17.52;;;4.72;;
78901;SDS011;70441;44.758;37.686;2023-06-10T05:33:05;13.55;;;4.78;;
78901;SDS011;70441;44.758;37.686;2023-06-10T05:34:06;26.33;;;10.65;;
78901;SDS011;70441;44.758;37.686;2023-06-10T05:35:11;19.45;;;8.88;;
78901;SDS011;70441;44.758;37.686;2023-06-10T05:36:12;13.18;;;5.95;;
78901;SDS011;70441;44.758;37.686;2023-06-10T05:37:14;9.05;;;5.30;;
78901;SDS011;70441;44.758;37.686;2023-06-10T05:38:15;14.90;;;5.47;;
78901;SDS011;70441;44.758;37.686;2023-06-10T05:39:16;9.00;;;4.43;;
78901;SDS011;70441;44.758;37.686;2023-06-10T05:40:18;11.95;;;5.22;;
78901;SDS011;70441;44.758;37.686;2023-06-10T05:41:19;11.55;;;4.97;;
78901;SDS011;70441;44.758;37.686;2023-06-10T05:42:21;11.63;;;5.05;;
78901;SDS011;70441;44.758;37.686;2023-06-10T05:43:23;12.73;;;5.35;;
78901;SDS011;70441;44.758;37.686;2023-06-10T05:44:24;10.57;;;5.03;;
78901;SDS011;70441;44.758;37.686;2023-06-10T05:45:27;14.32;;;5.43;;
78901;SDS011;70441;44.758;37.686;2023-06-10T05:47:29;9.40;;;4.03;;
78901;SDS011;70441;44.758;37.686;2023-06-10T05:48:31;9.07;;;4.50;;
78901;SDS011;70441;44.758;37.686;2023-06-10T05:49:32;12.82;;;4.28;;
78901;SDS011;70441;44.758;37.686;2023-06-10T05:50:35;21.17;;;5.82;;
78901;SDS011;70441;44.758;37.686;2023-06-10T05:51:39;11.95;;;4.50;;
78901;SDS011;70441;44.758;37.686;2023-06-10T05:52:40;9.43;;;4.30;;
78901;SDS011;70441;44.758;37.686;2023-06-10T05:53:44;8.50;;;4.05;;
78901;SDS011;70441;44.758;37.686;2023-06-10T05:54:47;9.73;;;4.30;;
78901;SDS011;70441;44.758;37.686;2023-06-10T05:55:55;17.20;;;5.35;;
78901;SDS011;70441;44.758;37.686;2023-06-10T05:56:58;10.85;;;4.50;;
78901;SDS011;70441;44.758;37.686;2023-06-10T05:57:59;10.48;;;4.35;;
78901;SDS011;70441;44.758;37.686;2023-06-10T05:59:02;8.43;;;4.22;;
78901;SDS011;70441;44.758;37.686;2023-06-10T06:00:03;9.82;;;4.43;;
78901;SDS011;70441;44.758;37.686;2023-06-10T06:01:13;8.23;;;4.00;;
78901;SDS011;70441;44.758;37.686;2023-06-10T06:02:14;8.23;;;4.30;;
78901;SDS011;70441;44.758;37.686;2023-06-10T06:03:17;12.02;;;3.72;;
78901;SDS011;70441;44.758;37.686;2023-06-10T06:04:19;16.35;;;6.28;;
78901;SDS011;70441;44.758;37.686;2023-06-10T06:05:20;12.85;;;5.07;;
78901;SDS011;70441;44.758;37.686;2023-06-10T06:06:24;9.32;;;4.35;;
78901;SDS011;70441;44.758;37.686;2023-06-10T06:07:34;14.45;;;5.38;;
78901;SDS011;70441;44.758;37.686;2023-06-10T06:08:36;10.40;;;4.13;;
78901;SDS011;70441;44.758;37.686;2023-06-10T06:09:37;11.15;;;3.97;;
78901;SDS011;70441;44.758;37.686;2023-06-10T06:10:38;11.88;;;4.60;;
78901;SDS011;70441;44.758;37.686;2023-06-10T06:11:40;12.27;;;4.45;;
78901;SDS011;70441;44.758;37.686;2023-06-10T06:12:42;52.17;;;7.72;;
78901;SDS011;70441;44.758;37.686;2023-06-10T06:13:46;19.08;;;4.68;;
78901;SDS011;70441;44.758;37.686;2023-06-10T06:15:15;11.45;;;4.40;;
78901;SDS011;70441;44.758;37.686;2023-06-10T06:16:16;10.30;;;4.20;;
78901;SDS011;70441;44.758;37.686;2023-06-10T06:17:19;26.17;;;5.40;;
78901;SDS011;70441;44.758;37.686;2023-06-10T06:18:20;29.38;;;6.07;;
78901;SDS011;70441;44.758;37.686;2023-06-10T06:19:22;10.13;;;4.45;;
78901;SDS011;70441;44.758;37.686;2023-06-10T06:20:23;9.43;;;4.57;;
78901;SDS011;70441;44.758;37.686;2023-06-10T06:21:24;9.60;;;4.63;;
78901;SDS011;70441;44.758;37.686;2023-06-10T06:22:26;19.20;;;5.20;;
78901;SDS011;70441;44.758;37.686;2023-06-10T06:23:27;33.35;;;6.93;;